sensor_id;sensor_type;location;lat;lon;timestamp;P1;durP1;ratioP1;P2;durP2;ratioP2
3916;SDS011;1973;50.518;7.318;2023-03-11T00:00:11;10.63;;;1.53;;
3916;SDS011;1973;50.518;7.318;2023-03-11T00:02:39;3.13;;;1.43;;
3916;SDS011;1973;50.518;7.318;2023-03-11T00:05:06;4.60;;;1.40;;
3916;SDS011;1973;50.518;7.318;2023-03-11T00:07:34;4.60;;;1.27;;
3916;SDS011;1973;50.518;7.318;2023-03-11T00:10:02;3.47;;;1.10;;
3916;SDS011;1973;50.518;7.318;2023-03-11T00:12:29;4.00;;;1.33;;
3916;SDS011;1973;50.518;7.318;2023-03-11T00:14:55;5.73;;;1.67;;
3916;SDS011;1973;50.518;7.318;2023-03-11T00:17:22;10.00;;;1.60;;
3916;SDS011;1973;50.518;7.318;2023-03-11T00:19:48;3.70;;;1.67;;
3916;SDS011;1973;50.518;7.318;2023-03-11T00:22:14;8.93;;;1.60;;
3916;SDS011;1973;50.518;7.318;2023-03-11T00:24:41;5.40;;;1.37;;
3916;SDS011;1973;50.518;7.318;2023-03-11T00:27:07;5.10;;;1.23;;
3916;SDS011;1973;50.518;7.318;2023-03-11T00:29:34;8.30;;;1.70;;
3916;SDS011;1973;50.518;7.318;2023-03-11T00:32:00;4.70;;;1.77;;
3916;SDS011;1973;50.518;7.318;2023-03-11T00:34:27;4.90;;;1.40;;
3916;SDS011;1973;50.518;7.318;2023-03-11T00:36:53;7.47;;;1.80;;
3916;SDS011;1973;50.518;7.318;2023-03-11T00:39:20;8.47;;;1.47;;
3916;SDS011;1973;50.518;7.318;2023-03-11T00:41:46;6.57;;;1.73;;
3916;SDS011;1973;50.518;7.318;2023-03-11T00:44:13;3.10;;;1.37;;
3916;SDS011;1973;50.518;7.318;2023-03-11T00:46:39;4.97;;;1.50;;
3916;SDS011;1973;50.518;7.318;2023-03-11T00:49:05;6.00;;;2.33;;
3916;SDS011;1973;50.518;7.318;2023-03-11T00:51:32;5.53;;;1.60;;
3916;SDS011;1973;50.518;7.318;2023-03-11T00:53:59;6.43;;;1.30;;
3916;SDS011;1973;50.518;7.318;2023-03-11T00:56:26;4.67;;;1.37;;
3916;SDS011;1973;50.518;7.318;2023-03-11T00:58:52;6.23;;;1.60;;
3916;SDS011;1973;50.518;7.318;2023-03-11T01:01:19;3.93;;;1.33;;
3916;SDS011;1973;50.518;7.318;2023-03-11T01:03:46;7.63;;;1.60;;
3916;SDS011;1973;50.518;7.318;2023-03-11T01:06:13;4.10;;;1.40;;
3916;SDS011;1973;50.518;7.318;2023-03-11T01:08:39;6.73;;;1.60;;
3916;SDS011;1973;50.518;7.318;2023-03-11T01:11:07;6.63;;;1.57;;
3916;SDS011;1973;50.518;7.318;2023-03-11T01:13:34;7.30;;;1.60;;
3916;SDS011;1973;50.518;7.318;2023-03-11T01:16:00;5.30;;;1.30;;
3916;SDS011;1973;50.518;7.318;2023-03-11T01:18:28;4.50;;;1.20;;
3916;SDS011;1973;50.518;7.318;2023-03-11T01:20:54;4.87;;;1.63;;
3916;SDS011;1973;50.518;7.318;2023-03-11T01:23:20;9.33;;;1.50;;
3916;SDS011;1973;50.518;7.318;2023-03-11T01:25:47;3.50;;;1.47;;
3916;SDS011;1973;50.518;7.318;2023-03-11T01:28:14;6.60;;;1.43;;
3916;SDS011;1973;50.518;7.318;2023-03-11T01:30:41;8.63;;;1.63;;
3916;SDS011;1973;50.518;7.318;2023-03-11T01:33:10;6.90;;;1.80;;
3916;SDS011;1973;50.518;7.318;2023-03-11T01:35:41;8.07;;;2.30;;
3916;SDS011;1973;50.518;7.318;2023-03-11T01:38:09;5.67;;;1.83;;
3916;SDS011;1973;50.518;7.318;2023-03-11T01:40:37;3.27;;;1.10;;
3916;SDS011;1973;50.518;7.318;2023-03-11T01:43:39;15.47;;;2.53;;
3916;SDS011;1973;50.518;7.318;2023-03-11T01:48:34;8.00;;;2.30;;
3916;SDS011;1973;50.518;7.318;2023-03-11T01:51:04;7.17;;;1.87;;
3916;SDS011;1973;50.518;7.318;2023-03-11T01:53:31;10.70;;;1.97;;
3916;SDS011;1973;50.518;7.318;2023-03-11T01:55:59;4.40;;;1.67;;
3916;SDS011;1973;50.518;7.318;2023-03-11T01:58:30;4.20;;;1.57;;
3916;SDS011;1973;50.518;7.318;2023-03-11T02:01:00;5.73;;;1.20;;
3916;SDS011;1973;50.518;7.318;2023-03-11T02:03:29;7.70;;;1.63;;
3916;SDS011;1973;50.518;7.318;2023-03-11T02:05:59;8.57;;;1.63;;
3916;SDS011;1973;50.518;7.318;2023-03-11T02:08:28;6.37;;;1.50;;
3916;SDS011;1973;50.518;7.318;2023-03-11T02:10:55;5.00;;;2.13;;
3916;SDS011;1973;50.518;7.318;2023-03-11T02:13:22;5.50;;;2.60;;
3916;SDS011;1973;50.518;7.318;2023-03-11T02:15:49;7.00;;;1.63;;
3916;SDS011;1973;50.518;7.318;2023-03-11T02:18:15;3.20;;;1.60;;
3916;SDS011;1973;50.518;7.318;2023-03-11T02:20:55;3.40;;;1.17;;
3916;SDS011;1973;50.518;7.318;2023-03-11T02:29:04;3.03;;;1.60;;
3916;SDS011;1973;50.518;7.318;2023-03-11T02:31:36;6.87;;;1.60;;
3916;SDS011;1973;50.518;7.318;2023-03-11T02:34:10;4.73;;;1.30;;
3916;SDS011;1973;50.518;7.318;2023-03-11T02:36:43;8.07;;;1.60;;
3916;SDS011;1973;50.518;7.318;2023-03-11T02:39:10;5.40;;;1.53;;
3916;SDS011;1973;50.518;7.318;2023-03-11T02:41:37;7.23;;;1.63;;
3916;SDS011;1973;50.518;7.318;2023-03-11T02:44:07;8.23;;;1.40;;
3916;SDS011;1973;50.518;7.318;2023-03-11T02:46:37;5.13;;;1.53;;
3916;SDS011;1973;50.518;7.318;2023-03-11T02:49:05;3.73;;;1.33;;
3916;SDS011;1973;50.518;7.318;2023-03-11T02:51:32;3.67;;;1.30;;
3916;SDS011;1973;50.518;7.318;2023-03-11T02:53:59;7.27;;;1.60;;
3916;SDS011;1973;50.518;7.318;2023-03-11T02:56:29;4.13;;;1.57;;
3916;SDS011;1973;50.518;7.318;2023-03-11T02:58:55;8.90;;;1.93;;
3916;SDS011;1973;50.518;7.318;2023-03-11T03:01:22;3.73;;;1.40;;
3916;SDS011;1973;50.518;7.318;2023-03-11T03:03:48;8.03;;;1.60;;
3916;SDS011;1973;50.518;7.318;2023-03-11T03:06:15;5.00;;;1.40;;
3916;SDS011;1973;50.518;7.318;2023-03-11T03:08:42;9.60;;;1.80;;
3916;SDS011;1973;50.518;7.318;2023-03-11T03:11:08;6.63;;;1.57;;
3916;SDS011;1973;50.518;7.318;2023-03-11T03:13:35;3.90;;;1.47;;
3916;SDS011;1973;50.518;7.318;2023-03-11T03:16:01;6.80;;;2.07;;
3916;SDS011;1973;50.518;7.318;2023-03-11T03:18:28;11.17;;;1.53;;
3916;SDS011;1973;50.518;7.318;2023-03-11T03:20:55;5.80;;;1.33;;
3916;SDS011;1973;50.518;7.318;2023-03-11T03:23:22;9.50;;;1.57;;
3916;SDS011;1973;50.518;7.318;2023-03-11T03:25:48;5.40;;;1.60;;
3916;SDS011;1973;50.518;7.318;2023-03-11T03:28:15;7.90;;;1.30;;
3916;SDS011;1973;50.518;7.318;2023-03-11T03:30:41;5.17;;;1.27;;
3916;SDS011;1973;50.518;7.318;2023-03-11T03:33:08;7.40;;;1.60;;
3916;SDS011;1973;50.518;7.318;2023-03-11T03:35:34;5.33;;;1.20;;
3916;SDS011;1973;50.518;7.318;2023-03-11T03:38:05;10.57;;;1.70;;
3916;SDS011;1973;50.518;7.318;2023-03-11T03:40:31;5.13;;;2.50;;
3916;SDS011;1973;50.518;7.318;2023-03-11T03:42:58;13.03;;;2.07;;
3916;SDS011;1973;50.518;7.318;2023-03-11T03:45:25;5.17;;;1.50;;
3916;SDS011;1973;50.518;7.318;2023-03-11T03:47:51;3.93;;;1.27;;
3916;SDS011;1973;50.518;7.318;2023-03-11T03:50:18;4.13;;;1.30;;
3916;SDS011;1973;50.518;7.318;2023-03-11T03:52:45;6.90;;;1.13;;
3916;SDS011;1973;50.518;7.318;2023-03-11T03:55:11;3.73;;;1.17;;
3916;SDS011;1973;50.518;7.318;2023-03-11T03:57:38;8.20;;;1.80;;
3916;SDS011;1973;50.518;7.318;2023-03-11T04:00:05;8.03;;;1.17;;
3916;SDS011;1973;50.518;7.318;2023-03-11T04:02:34;12.37;;;2.57;;
3916;SDS011;1973;50.518;7.318;2023-03-11T04:05:01;7.30;;;1.47;;
3916;SDS011;1973;50.518;7.318;2023-03-11T04:07:27;6.70;;;1.47;;
3916;SDS011;1973;50.518;7.318;2023-03-11T04:09:54;3.50;;;1.17;;
3916;SDS011;1973;50.518;7.318;2023-03-11T04:12:20;5.13;;;1.30;;
3916;SDS011;1973;50.518;7.318;2023-03-11T04:14:46;8.70;;;1.80;;
3916;SDS011;1973;50.518;7.318;2023-03-11T04:17:13;5.83;;;1.57;;
3916;SDS011;1973;50.518;7.318;2023-03-11T04:19:42;4.50;;;1.30;;
3916;SDS011;1973;50.518;7.318;2023-03-11T04:22:09;3.43;;;1.07;;
3916;SDS011;1973;50.518;7.318;2023-03-11T04:24:35;5.03;;;1.20;;
3916;SDS011;1973;50.518;7.318;2023-03-11T04:27:02;3.73;;;1.67;;
3916;SDS011;1973;50.518;7.318;2023-03-11T04:29:28;3.53;;;1.60;;
3916;SDS011;1973;50.518;7.318;2023-03-11T04:31:55;3.00;;;1.40;;
3916;SDS011;1973;50.518;7.318;2023-03-11T04:34:22;5.03;;;1.50;;
3916;SDS011;1973;50.518;7.318;2023-03-11T04:36:51;2.83;;;1.20;;
3916;SDS011;1973;50.518;7.318;2023-03-11T04:39:19;4.50;;;1.30;;
3916;SDS011;1973;50.518;7.318;2023-03-11T04:41:46;4.43;;;1.43;;
3916;SDS011;1973;50.518;7.318;2023-03-11T04:44:12;4.40;;;1.60;;
3916;SDS011;1973;50.518;7.318;2023-03-11T04:46:38;4.60;;;1.43;;
3916;SDS011;1973;50.518;7.318;2023-03-11T04:49:05;3.20;;;1.00;;
3916;SDS011;1973;50.518;7.318;2023-03-11T04:51:31;3.70;;;1.30;;
3916;SDS011;1973;50.518;7.318;2023-03-11T04:53:58;4.10;;;1.20;;
3916;SDS011;1973;50.518;7.318;2023-03-11T04:56:24;8.00;;;1.40;;
3916;SDS011;1973;50.518;7.318;2023-03-11T04:58:51;3.83;;;1.40;;
3916;SDS011;1973;50.518;7.318;2023-03-11T05:01:17;10.00;;;1.70;;
3916;SDS011;1973;50.518;7.318;2023-03-11T05:03:44;2.70;;;1.30;;
3916;SDS011;1973;50.518;7.318;2023-03-11T05:06:11;3.63;;;1.40;;
3916;SDS011;1973;50.518;7.318;2023-03-11T05:08:38;5.77;;;1.60;;
3916;SDS011;1973;50.518;7.318;2023-03-11T05:11:04;4.93;;;1.37;;
3916;SDS011;1973;50.518;7.318;2023-03-11T05:13:30;5.10;;;1.30;;
3916;SDS011;1973;50.518;7.318;2023-03-11T05:15:57;8.63;;;1.70;;
3916;SDS011;1973;50.518;7.318;2023-03-11T05:18:23;8.60;;;1.80;;
3916;SDS011;1973;50.518;7.318;2023-03-11T05:20:50;6.27;;;1.30;;
3916;SDS011;1973;50.518;7.318;2023-03-11T05:23:16;6.30;;;1.50;;
3916;SDS011;1973;50.518;7.318;2023-03-11T05:25:43;7.00;;;1.03;;
3916;SDS011;1973;50.518;7.318;2023-03-11T05:28:09;2.93;;;1.20;;
3916;SDS011;1973;50.518;7.318;2023-03-11T05:30:36;7.97;;;1.80;;
3916;SDS011;1973;50.518;7.318;2023-03-11T05:33:02;6.63;;;2.00;;
3916;SDS011;1973;50.518;7.318;2023-03-11T05:35:29;4.73;;;1.70;;
3916;SDS011;1973;50.518;7.318;2023-03-11T05:37:56;3.93;;;2.30;;
3916;SDS011;1973;50.518;7.318;2023-03-11T05:40:22;3.10;;;1.67;;
3916;SDS011;1973;50.518;7.318;2023-03-11T05:42:48;2.63;;;1.40;;
3916;SDS011;1973;50.518;7.318;2023-03-11T05:45:15;2.90;;;1.50;;
3916;SDS011;1973;50.518;7.318;2023-03-11T05:47:41;4.20;;;2.30;;
3916;SDS011;1973;50.518;7.318;2023-03-11T05:50:09;7.80;;;2.23;;
3916;SDS011;1973;50.518;7.318;2023-03-11T05:52:36;8.63;;;3.20;;
3916;SDS011;1973;50.518;7.318;2023-03-11T05:55:03;19.57;;;6.67;;
3916;SDS011;1973;50.518;7.318;2023-03-11T05:57:30;12.73;;;5.07;;
3916;SDS011;1973;50.518;7.318;2023-03-11T05:59:56;10.50;;;3.20;;
3916;SDS011;1973;50.518;7.318;2023-03-11T06:02:23;6.60;;;2.50;;
3916;SDS011;1973;50.518;7.318;2023-03-11T06:04:49;6.30;;;2.40;;
3916;SDS011;1973;50.518;7.318;2023-03-11T06:07:16;5.07;;;2.07;;
3916;SDS011;1973;50.518;7.318;2023-03-11T06:09:43;4.47;;;2.27;;
3916;SDS011;1973;50.518;7.318;2023-03-11T06:12:09;6.10;;;2.60;;
3916;SDS011;1973;50.518;7.318;2023-03-11T06:14:35;8.10;;;2.60;;
3916;SDS011;1973;50.518;7.318;2023-03-11T06:17:03;5.10;;;1.90;;
3916;SDS011;1973;50.518;7.318;2023-03-11T06:19:30;4.00;;;1.60;;
3916;SDS011;1973;50.518;7.318;2023-03-11T06:21:56;5.23;;;1.87;;
3916;SDS011;1973;50.518;7.318;2023-03-11T06:24:23;8.37;;;3.63;;
3916;SDS011;1973;50.518;7.318;2023-03-11T06:26:50;5.63;;;2.60;;
3916;SDS011;1973;50.518;7.318;2023-03-11T06:29:17;9.33;;;3.13;;
3916;SDS011;1973;50.518;7.318;2023-03-11T06:31:44;6.40;;;2.83;;
3916;SDS011;1973;50.518;7.318;2023-03-11T06:34:11;11.87;;;3.90;;
3916;SDS011;1973;50.518;7.318;2023-03-11T06:36:37;8.27;;;4.47;;
3916;SDS011;1973;50.518;7.318;2023-03-11T06:39:04;6.90;;;3.60;;
3916;SDS011;1973;50.518;7.318;2023-03-11T06:41:33;10.30;;;3.30;;
3916;SDS011;1973;50.518;7.318;2023-03-11T06:44:00;10.67;;;3.03;;
3916;SDS011;1973;50.518;7.318;2023-03-11T06:46:26;11.13;;;4.77;;
3916;SDS011;1973;50.518;7.318;2023-03-11T06:48:53;12.77;;;5.97;;
3916;SDS011;1973;50.518;7.318;2023-03-11T06:51:20;11.97;;;6.30;;
3916;SDS011;1973;50.518;7.318;2023-03-11T06:53:47;15.23;;;5.63;;
3916;SDS011;1973;50.518;7.318;2023-03-11T06:56:15;13.20;;;5.70;;
3916;SDS011;1973;50.518;7.318;2023-03-11T06:58:42;11.60;;;5.23;;
3916;SDS011;1973;50.518;7.318;2023-03-11T07:01:10;7.77;;;4.27;;
3916;SDS011;1973;50.518;7.318;2023-03-11T07:03:38;4.97;;;3.73;;
3916;SDS011;1973;50.518;7.318;2023-03-11T07:06:05;7.40;;;3.20;;
3916;SDS011;1973;50.518;7.318;2023-03-11T07:08:36;7.33;;;2.43;;
3916;SDS011;1973;50.518;7.318;2023-03-11T07:11:03;4.60;;;1.97;;
3916;SDS011;1973;50.518;7.318;2023-03-11T07:13:32;5.37;;;2.47;;
3916;SDS011;1973;50.518;7.318;2023-03-11T07:16:00;5.10;;;2.23;;
3916;SDS011;1973;50.518;7.318;2023-03-11T07:18:34;3.80;;;2.30;;
3916;SDS011;1973;50.518;7.318;2023-03-11T07:21:02;6.73;;;2.50;;
3916;SDS011;1973;50.518;7.318;2023-03-11T07:23:29;8.73;;;3.30;;
3916;SDS011;1973;50.518;7.318;2023-03-11T07:25:56;4.17;;;1.93;;
3916;SDS011;1973;50.518;7.318;2023-03-11T07:28:24;5.80;;;2.40;;
3916;SDS011;1973;50.518;7.318;2023-03-11T07:30:52;4.97;;;2.20;;
3916;SDS011;1973;50.518;7.318;2023-03-11T07:33:18;5.67;;;2.27;;
3916;SDS011;1973;50.518;7.318;2023-03-11T07:35:46;6.43;;;2.60;;
3916;SDS011;1973;50.518;7.318;2023-03-11T07:38:15;7.60;;;2.07;;
3916;SDS011;1973;50.518;7.318;2023-03-11T07:40:43;8.47;;;2.20;;
3916;SDS011;1973;50.518;7.318;2023-03-11T07:43:09;7.70;;;2.37;;
3916;SDS011;1973;50.518;7.318;2023-03-11T07:45:36;5.80;;;2.17;;
3916;SDS011;1973;50.518;7.318;2023-03-11T07:48:03;4.40;;;1.90;;
3916;SDS011;1973;50.518;7.318;2023-03-11T07:50:29;14.80;;;2.90;;
3916;SDS011;1973;50.518;7.318;2023-03-11T07:52:56;4.70;;;2.07;;
3916;SDS011;1973;50.518;7.318;2023-03-11T07:55:22;4.20;;;2.00;;
3916;SDS011;1973;50.518;7.318;2023-03-11T07:57:49;8.50;;;2.60;;
3916;SDS011;1973;50.518;7.318;2023-03-11T08:00:16;5.00;;;1.80;;
3916;SDS011;1973;50.518;7.318;2023-03-11T08:02:43;6.30;;;2.80;;
3916;SDS011;1973;50.518;7.318;2023-03-11T08:05:10;4.00;;;2.10;;
3916;SDS011;1973;50.518;7.318;2023-03-11T08:07:36;5.00;;;2.30;;
3916;SDS011;1973;50.518;7.318;2023-03-11T08:10:03;6.30;;;2.50;;
3916;SDS011;1973;50.518;7.318;2023-03-11T08:12:29;5.20;;;2.40;;
3916;SDS011;1973;50.518;7.318;2023-03-11T08:14:56;5.40;;;2.50;;
3916;SDS011;1973;50.518;7.318;2023-03-11T08:17:22;4.17;;;2.40;;
3916;SDS011;1973;50.518;7.318;2023-03-11T08:19:49;10.63;;;2.30;;
3916;SDS011;1973;50.518;7.318;2023-03-11T08:22:15;5.33;;;2.13;;
3916;SDS011;1973;50.518;7.318;2023-03-11T08:24:42;5.77;;;2.83;;
3916;SDS011;1973;50.518;7.318;2023-03-11T08:27:08;9.10;;;3.27;;
3916;SDS011;1973;50.518;7.318;2023-03-11T08:29:35;7.20;;;1.93;;
3916;SDS011;1973;50.518;7.318;2023-03-11T08:32:02;4.03;;;2.40;;
3916;SDS011;1973;50.518;7.318;2023-03-11T08:34:29;4.53;;;2.00;;
3916;SDS011;1973;50.518;7.318;2023-03-11T08:36:55;5.40;;;2.20;;
3916;SDS011;1973;50.518;7.318;2023-03-11T08:39:22;4.77;;;2.17;;
3916;SDS011;1973;50.518;7.318;2023-03-11T08:41:49;7.67;;;2.80;;
3916;SDS011;1973;50.518;7.318;2023-03-11T08:44:15;4.07;;;2.67;;
3916;SDS011;1973;50.518;7.318;2023-03-11T08:46:41;8.87;;;2.40;;
3916;SDS011;1973;50.518;7.318;2023-03-11T08:49:08;9.57;;;2.57;;
3916;SDS011;1973;50.518;7.318;2023-03-11T08:51:35;7.87;;;2.73;;
3916;SDS011;1973;50.518;7.318;2023-03-11T08:54:02;3.57;;;1.80;;
3916;SDS011;1973;50.518;7.318;2023-03-11T08:56:29;5.87;;;2.47;;
3916;SDS011;1973;50.518;7.318;2023-03-11T08:58:56;5.90;;;2.10;;
3916;SDS011;1973;50.518;7.318;2023-03-11T09:01:22;5.03;;;2.37;;
3916;SDS011;1973;50.518;7.318;2023-03-11T09:03:49;9.47;;;2.60;;
3916;SDS011;1973;50.518;7.318;2023-03-11T09:06:16;7.17;;;2.07;;
3916;SDS011;1973;50.518;7.318;2023-03-11T09:08:43;4.40;;;1.70;;
3916;SDS011;1973;50.518;7.318;2023-03-11T09:11:10;4.13;;;2.00;;
3916;SDS011;1973;50.518;7.318;2023-03-11T09:13:38;13.77;;;2.17;;
3916;SDS011;1973;50.518;7.318;2023-03-11T09:16:07;8.77;;;3.60;;
3916;SDS011;1973;50.518;7.318;2023-03-11T09:18:37;10.33;;;3.00;;
3916;SDS011;1973;50.518;7.318;2023-03-11T09:21:03;6.03;;;2.20;;
3916;SDS011;1973;50.518;7.318;2023-03-11T09:23:30;5.23;;;1.40;;
3916;SDS011;1973;50.518;7.318;2023-03-11T09:25:57;4.83;;;1.73;;
3916;SDS011;1973;50.518;7.318;2023-03-11T09:28:23;4.10;;;1.40;;
3916;SDS011;1973;50.518;7.318;2023-03-11T09:30:49;6.30;;;2.00;;
3916;SDS011;1973;50.518;7.318;2023-03-11T09:33:16;3.97;;;1.73;;
3916;SDS011;1973;50.518;7.318;2023-03-11T09:35:42;2.20;;;1.53;;
3916;SDS011;1973;50.518;7.318;2023-03-11T09:38:10;5.07;;;1.40;;
3916;SDS011;1973;50.518;7.318;2023-03-11T09:40:45;3.20;;;1.63;;
3916;SDS011;1973;50.518;7.318;2023-03-11T09:43:22;4.20;;;1.70;;
3916;SDS011;1973;50.518;7.318;2023-03-11T09:45:54;7.13;;;1.57;;
3916;SDS011;1973;50.518;7.318;2023-03-11T09:51:41;5.47;;;1.17;;
3916;SDS011;1973;50.518;7.318;2023-03-11T09:54:12;4.37;;;1.27;;
3916;SDS011;1973;50.518;7.318;2023-03-11T09:56:38;4.70;;;1.53;;
3916;SDS011;1973;50.518;7.318;2023-03-11T09:59:52;2.33;;;1.27;;
3916;SDS011;1973;50.518;7.318;2023-03-11T10:02:01;4.90;;;1.37;;
3916;SDS011;1973;50.518;7.318;2023-03-11T10:04:30;3.63;;;1.60;;
3916;SDS011;1973;50.518;7.318;2023-03-11T10:07:08;5.80;;;2.23;;
3916;SDS011;1973;50.518;7.318;2023-03-11T10:09:40;3.37;;;1.10;;
3916;SDS011;1973;50.518;7.318;2023-03-11T10:12:22;3.70;;;1.30;;
3916;SDS011;1973;50.518;7.318;2023-03-11T10:23:45;3.43;;;1.30;;
3916;SDS011;1973;50.518;7.318;2023-03-11T10:26:22;4.00;;;2.93;;
3916;SDS011;1973;50.518;7.318;2023-03-11T10:31:56;3.10;;;1.00;;
3916;SDS011;1973;50.518;7.318;2023-03-11T10:34:33;7.23;;;1.60;;
3916;SDS011;1973;50.518;7.318;2023-03-11T10:37:05;4.43;;;1.30;;
3916;SDS011;1973;50.518;7.318;2023-03-11T10:39:39;3.20;;;1.50;;
3916;SDS011;1973;50.518;7.318;2023-03-11T10:42:16;3.77;;;1.27;;
3916;SDS011;1973;50.518;7.318;2023-03-11T10:44:47;2.10;;;1.13;;
3916;SDS011;1973;50.518;7.318;2023-03-11T10:47:19;3.13;;;1.10;;
3916;SDS011;1973;50.518;7.318;2023-03-11T10:49:50;6.90;;;1.40;;
3916;SDS011;1973;50.518;7.318;2023-03-11T10:52:20;6.00;;;1.10;;
3916;SDS011;1973;50.518;7.318;2023-03-11T10:54:47;3.03;;;1.57;;
3916;SDS011;1973;50.518;7.318;2023-03-11T10:57:24;3.07;;;1.77;;
3916;SDS011;1973;50.518;7.318;2023-03-11T10:59:58;2.67;;;1.40;;
3916;SDS011;1973;50.518;7.318;2023-03-11T11:02:30;3.77;;;1.20;;
3916;SDS011;1973;50.518;7.318;2023-03-11T11:05:22;3.43;;;1.40;;
3916;SDS011;1973;50.518;7.318;2023-03-11T11:10:35;10.20;;;1.73;;
3916;SDS011;1973;50.518;7.318;2023-03-11T11:13:15;5.27;;;1.30;;
3916;SDS011;1973;50.518;7.318;2023-03-11T11:15:54;6.40;;;1.13;;
3916;SDS011;1973;50.518;7.318;2023-03-11T11:18:30;6.17;;;1.30;;
3916;SDS011;1973;50.518;7.318;2023-03-11T11:21:04;4.60;;;1.70;;
3916;SDS011;1973;50.518;7.318;2023-03-11T11:23:35;4.93;;;1.70;;
3916;SDS011;1973;50.518;7.318;2023-03-11T11:26:07;2.00;;;1.10;;
3916;SDS011;1973;50.518;7.318;2023-03-11T11:28:42;1.93;;;1.20;;
3916;SDS011;1973;50.518;7.318;2023-03-11T11:31:19;3.97;;;2.03;;
3916;SDS011;1973;50.518;7.318;2023-03-11T11:33:50;4.97;;;1.40;;
3916;SDS011;1973;50.518;7.318;2023-03-11T11:36:21;4.20;;;1.40;;
3916;SDS011;1973;50.518;7.318;2023-03-11T11:38:53;3.53;;;1.23;;
3916;SDS011;1973;50.518;7.318;2023-03-11T11:41:21;3.50;;;1.33;;
3916;SDS011;1973;50.518;7.318;2023-03-11T11:43:53;4.23;;;1.37;;
3916;SDS011;1973;50.518;7.318;2023-03-11T11:46:25;3.20;;;1.20;;
3916;SDS011;1973;50.518;7.318;2023-03-11T11:49:08;3.03;;;1.07;;
3916;SDS011;1973;50.518;7.318;2023-03-11T11:51:47;2.20;;;1.10;;
3916;SDS011;1973;50.518;7.318;2023-03-11T11:54:39;3.40;;;1.13;;
3916;SDS011;1973;50.518;7.318;2023-03-11T11:57:14;2.60;;;1.10;;
3916;SDS011;1973;50.518;7.318;2023-03-11T11:59:42;3.17;;;1.30;;
3916;SDS011;1973;50.518;7.318;2023-03-11T12:08:13;2.60;;;1.17;;
3916;SDS011;1973;50.518;7.318;2023-03-11T12:16:49;2.07;;;1.13;;
3916;SDS011;1973;50.518;7.318;2023-03-11T12:25:10;7.47;;;2.10;;
3916;SDS011;1973;50.518;7.318;2023-03-11T12:27:58;5.40;;;1.90;;
3916;SDS011;1973;50.518;7.318;2023-03-11T12:30:28;3.67;;;1.80;;
3916;SDS011;1973;50.518;7.318;2023-03-11T12:33:02;3.43;;;1.60;;
3916;SDS011;1973;50.518;7.318;2023-03-11T12:35:33;5.10;;;2.10;;
3916;SDS011;1973;50.518;7.318;2023-03-11T12:38:03;4.20;;;2.30;;
3916;SDS011;1973;50.518;7.318;2023-03-11T12:45:59;3.20;;;1.50;;
3916;SDS011;1973;50.518;7.318;2023-03-11T12:50:53;3.00;;;1.40;;
3916;SDS011;1973;50.518;7.318;2023-03-11T13:02:19;3.73;;;1.90;;
3916;SDS011;1973;50.518;7.318;2023-03-11T13:10:51;4.33;;;1.67;;
3916;SDS011;1973;50.518;7.318;2023-03-11T13:18:38;3.17;;;1.50;;
3916;SDS011;1973;50.518;7.318;2023-03-11T13:41:28;6.03;;;1.97;;
3916;SDS011;1973;50.518;7.318;2023-03-11T13:44:11;2.40;;;1.40;;
3916;SDS011;1973;50.518;7.318;2023-03-11T13:46:41;3.53;;;1.60;;
3916;SDS011;1973;50.518;7.318;2023-03-11T13:51:52;3.63;;;1.60;;
3916;SDS011;1973;50.518;7.318;2023-03-11T13:54:28;3.13;;;1.30;;
3916;SDS011;1973;50.518;7.318;2023-03-11T13:57:00;3.73;;;1.50;;
3916;SDS011;1973;50.518;7.318;2023-03-11T13:59:29;2.00;;;1.30;;
3916;SDS011;1973;50.518;7.318;2023-03-11T14:04:32;6.17;;;1.70;;
3916;SDS011;1973;50.518;7.318;2023-03-11T14:07:23;6.10;;;1.50;;
3916;SDS011;1973;50.518;7.318;2023-03-11T14:12:37;4.30;;;1.43;;
3916;SDS011;1973;50.518;7.318;2023-03-11T14:15:04;3.83;;;1.50;;
3916;SDS011;1973;50.518;7.318;2023-03-11T14:17:33;3.33;;;1.57;;
3916;SDS011;1973;50.518;7.318;2023-03-11T14:20:02;3.07;;;1.20;;
3916;SDS011;1973;50.518;7.318;2023-03-11T14:22:32;3.20;;;1.47;;
3916;SDS011;1973;50.518;7.318;2023-03-11T14:24:59;2.30;;;1.10;;
3916;SDS011;1973;50.518;7.318;2023-03-11T14:27:30;2.40;;;1.27;;
3916;SDS011;1973;50.518;7.318;2023-03-11T14:29:57;5.83;;;1.90;;
3916;SDS011;1973;50.518;7.318;2023-03-11T14:34:52;3.80;;;1.50;;
3916;SDS011;1973;50.518;7.318;2023-03-11T14:37:24;2.83;;;1.50;;
3916;SDS011;1973;50.518;7.318;2023-03-11T14:39:55;3.80;;;1.47;;
3916;SDS011;1973;50.518;7.318;2023-03-11T14:42:25;5.33;;;2.20;;
3916;SDS011;1973;50.518;7.318;2023-03-11T14:45:09;4.57;;;1.50;;
3916;SDS011;1973;50.518;7.318;2023-03-11T14:47:46;3.90;;;1.47;;
3916;SDS011;1973;50.518;7.318;2023-03-11T14:50:21;3.20;;;1.63;;
3916;SDS011;1973;50.518;7.318;2023-03-11T14:52:51;4.10;;;1.67;;
3916;SDS011;1973;50.518;7.318;2023-03-11T14:55:37;2.43;;;1.40;;
3916;SDS011;1973;50.518;7.318;2023-03-11T15:00:48;7.10;;;2.07;;
3916;SDS011;1973;50.518;7.318;2023-03-11T15:03:26;2.83;;;1.60;;
3916;SDS011;1973;50.518;7.318;2023-03-11T15:05:58;4.43;;;1.50;;
3916;SDS011;1973;50.518;7.318;2023-03-11T15:08:30;3.70;;;1.80;;
3916;SDS011;1973;50.518;7.318;2023-03-11T15:13:40;4.67;;;1.50;;
3916;SDS011;1973;50.518;7.318;2023-03-11T15:18:51;5.50;;;1.47;;
3916;SDS011;1973;50.518;7.318;2023-03-11T15:21:20;3.77;;;1.60;;
3916;SDS011;1973;50.518;7.318;2023-03-11T15:23:50;5.03;;;1.53;;
3916;SDS011;1973;50.518;7.318;2023-03-11T15:28:53;3.77;;;1.23;;
3916;SDS011;1973;50.518;7.318;2023-03-11T15:33:48;5.43;;;1.63;;
3916;SDS011;1973;50.518;7.318;2023-03-11T15:36:27;2.40;;;1.43;;
3916;SDS011;1973;50.518;7.318;2023-03-11T15:41:53;6.70;;;1.50;;
3916;SDS011;1973;50.518;7.318;2023-03-11T15:44:34;3.83;;;1.50;;
3916;SDS011;1973;50.518;7.318;2023-03-11T15:47:02;5.80;;;2.13;;
3916;SDS011;1973;50.518;7.318;2023-03-11T15:49:29;3.27;;;1.40;;
3916;SDS011;1973;50.518;7.318;2023-03-11T15:51:59;3.23;;;1.20;;
3916;SDS011;1973;50.518;7.318;2023-03-11T15:54:26;3.00;;;1.50;;
3916;SDS011;1973;50.518;7.318;2023-03-11T15:56:53;5.80;;;1.90;;
3916;SDS011;1973;50.518;7.318;2023-03-11T15:59:22;5.67;;;1.40;;
3916;SDS011;1973;50.518;7.318;2023-03-11T16:01:49;4.43;;;1.60;;
3916;SDS011;1973;50.518;7.318;2023-03-11T16:04:16;4.13;;;1.80;;
3916;SDS011;1973;50.518;7.318;2023-03-11T16:06:44;3.17;;;1.20;;
3916;SDS011;1973;50.518;7.318;2023-03-11T16:09:28;8.53;;;1.97;;
3916;SDS011;1973;50.518;7.318;2023-03-11T16:11:56;3.63;;;1.53;;
3916;SDS011;1973;50.518;7.318;2023-03-11T16:14:23;5.30;;;2.37;;
3916;SDS011;1973;50.518;7.318;2023-03-11T16:16:49;4.97;;;2.20;;
3916;SDS011;1973;50.518;7.318;2023-03-11T16:19:15;3.20;;;1.77;;
3916;SDS011;1973;50.518;7.318;2023-03-11T16:21:42;6.30;;;1.80;;
3916;SDS011;1973;50.518;7.318;2023-03-11T16:24:14;3.77;;;1.30;;
3916;SDS011;1973;50.518;7.318;2023-03-11T16:26:44;3.80;;;1.60;;
3916;SDS011;1973;50.518;7.318;2023-03-11T16:29:10;3.20;;;1.60;;
3916;SDS011;1973;50.518;7.318;2023-03-11T16:31:44;1.53;;;1.03;;
3916;SDS011;1973;50.518;7.318;2023-03-11T16:34:11;2.67;;;1.70;;
3916;SDS011;1973;50.518;7.318;2023-03-11T16:36:38;3.93;;;2.27;;
3916;SDS011;1973;50.518;7.318;2023-03-11T16:39:04;6.37;;;3.00;;
3916;SDS011;1973;50.518;7.318;2023-03-11T16:41:41;6.00;;;3.10;;
3916;SDS011;1973;50.518;7.318;2023-03-11T16:44:09;3.33;;;1.67;;
3916;SDS011;1973;50.518;7.318;2023-03-11T16:46:36;3.33;;;1.50;;
3916;SDS011;1973;50.518;7.318;2023-03-11T16:49:03;3.53;;;1.60;;
3916;SDS011;1973;50.518;7.318;2023-03-11T16:51:30;4.43;;;2.70;;
3916;SDS011;1973;50.518;7.318;2023-03-11T16:53:57;5.20;;;2.20;;
3916;SDS011;1973;50.518;7.318;2023-03-11T16:56:23;4.40;;;1.90;;
3916;SDS011;1973;50.518;7.318;2023-03-11T16:58:50;5.70;;;3.30;;
3916;SDS011;1973;50.518;7.318;2023-03-11T17:01:16;6.53;;;3.60;;
3916;SDS011;1973;50.518;7.318;2023-03-11T17:03:44;4.53;;;2.80;;
3916;SDS011;1973;50.518;7.318;2023-03-11T17:06:13;5.07;;;2.80;;
3916;SDS011;1973;50.518;7.318;2023-03-11T17:08:41;3.70;;;2.43;;
3916;SDS011;1973;50.518;7.318;2023-03-11T17:11:17;6.13;;;2.73;;
3916;SDS011;1973;50.518;7.318;2023-03-11T17:13:46;5.07;;;3.90;;
3916;SDS011;1973;50.518;7.318;2023-03-11T17:16:13;7.87;;;4.87;;
3916;SDS011;1973;50.518;7.318;2023-03-11T17:18:39;5.43;;;4.77;;
3916;SDS011;1973;50.518;7.318;2023-03-11T17:21:07;7.80;;;5.70;;
3916;SDS011;1973;50.518;7.318;2023-03-11T17:23:35;10.53;;;5.00;;